sensor_id;sensor_type;location;lat;lon;timestamp;pressure;altitude;pressure_sealevel;temperature;humidity
46464;BME280;32161;48.148;-1.554;2023-01-28T00:01:29;102241.72;;;3.00;82.60
46464;BME280;32161;48.148;-1.554;2023-01-28T00:03:57;102242.28;;;3.03;82.44
46464;BME280;32161;48.148;-1.554;2023-01-28T00:06:24;102236.06;;;3.03;83.31
46464;BME280;32161;48.148;-1.554;2023-01-28T00:08:52;102231.25;;;3.06;83.76
46464;BME280;32161;48.148;-1.554;2023-01-28T00:11:22;102230.13;;;3.09;83.82
46464;BME280;32161;48.148;-1.554;2023-01-28T00:13:51;102231.81;;;3.10;84.10
46464;BME280;32161;48.148;-1.554;2023-01-28T00:16:20;102228.00;;;3.12;84.17
46464;BME280;32161;48.148;-1.554;2023-01-28T00:18:48;102235.78;;;3.15;85.20
46464;BME280;32161;48.148;-1.554;2023-01-28T00:21:16;102234.34;;;3.21;84.97
46464;BME280;32161;48.148;-1.554;2023-01-28T00:23:51;102232.03;;;3.26;85.03
46464;BME280;32161;48.148;-1.554;2023-01-28T00:26:21;102230.91;;;3.29;85.06
46464;BME280;32161;48.148;-1.554;2023-01-28T00:28:50;102236.84;;;3.32;84.81
46464;BME280;32161;48.148;-1.554;2023-01-28T00:31:20;102237.41;;;3.36;84.50
46464;BME280;32161;48.148;-1.554;2023-01-28T00:33:49;102230.44;;;3.43;85.17
46464;BME280;32161;48.148;-1.554;2023-01-28T00:36:19;102237.69;;;3.42;84.96
46464;BME280;32161;48.148;-1.554;2023-01-28T00:38:49;102247.25;;;3.45;84.62
46464;BME280;32161;48.148;-1.554;2023-01-28T00:41:20;102237.22;;;3.47;85.16
46464;BME280;32161;48.148;-1.554;2023-01-28T00:43:50;102234.09;;;3.52;85.78
46464;BME280;32161;48.148;-1.554;2023-01-28T00:46:19;102229.56;;;3.52;86.16
46464;BME280;32161;48.148;-1.554;2023-01-28T00:48:47;102225.88;;;3.53;86.36
46464;BME280;32161;48.148;-1.554;2023-01-28T00:51:17;102228.97;;;3.58;86.16
46464;BME280;32161;48.148;-1.554;2023-01-28T00:53:45;102235.75;;;3.62;86.75
46464;BME280;32161;48.148;-1.554;2023-01-28T00:56:15;102237.00;;;3.68;86.24
46464;BME280;32161;48.148;-1.554;2023-01-28T00:58:44;102226.22;;;3.68;86.66
46464;BME280;32161;48.148;-1.554;2023-01-28T01:01:15;102222.25;;;3.72;86.69
46464;BME280;32161;48.148;-1.554;2023-01-28T01:03:44;102228.59;;;3.81;85.95
46464;BME280;32161;48.148;-1.554;2023-01-28T01:06:14;102239.91;;;3.84;86.53
46464;BME280;32161;48.148;-1.554;2023-01-28T01:08:42;102239.03;;;3.84;86.44
46464;BME280;32161;48.148;-1.554;2023-01-28T01:11:16;102240.59;;;3.86;86.26
46464;BME280;32161;48.148;-1.554;2023-01-28T01:13:48;102225.28;;;3.87;86.24
46464;BME280;32161;48.148;-1.554;2023-01-28T01:16:17;102228.53;;;3.90;85.86
46464;BME280;32161;48.148;-1.554;2023-01-28T01:18:44;102232.78;;;3.93;85.88
46464;BME280;32161;48.148;-1.554;2023-01-28T01:21:15;102234.00;;;3.99;85.74
46464;BME280;32161;48.148;-1.554;2023-01-28T01:23:44;102234.25;;;4.05;85.58
46464;BME280;32161;48.148;-1.554;2023-01-28T01:26:12;102238.78;;;4.05;85.27
46464;BME280;32161;48.148;-1.554;2023-01-28T01:28:40;102238.09;;;4.03;85.71
46464;BME280;32161;48.148;-1.554;2023-01-28T01:31:11;102247.41;;;4.08;85.60
46464;BME280;32161;48.148;-1.554;2023-01-28T01:33:41;102237.63;;;4.07;85.48
46464;BME280;32161;48.148;-1.554;2023-01-28T01:36:11;102241.31;;;4.06;85.52
46464;BME280;32161;48.148;-1.554;2023-01-28T01:38:40;102238.63;;;4.06;85.76
46464;BME280;32161;48.148;-1.554;2023-01-28T01:41:09;102253.34;;;4.12;84.96
46464;BME280;32161;48.148;-1.554;2023-01-28T01:43:47;102251.88;;;4.18;85.27
46464;BME280;32161;48.148;-1.554;2023-01-28T01:46:19;102240.44;;;4.15;84.10
46464;BME280;32161;48.148;-1.554;2023-01-28T01:48:49;102243.56;;;4.11;84.79
46464;BME280;32161;48.148;-1.554;2023-01-28T01:51:21;102230.66;;;4.14;84.69
46464;BME280;32161;48.148;-1.554;2023-01-28T01:53:53;102232.66;;;4.12;84.76
46464;BME280;32161;48.148;-1.554;2023-01-28T01:56:26;102237.59;;;4.17;84.75
46464;BME280;32161;48.148;-1.554;2023-01-28T01:58:55;102239.22;;;4.28;85.02
46464;BME280;32161;48.148;-1.554;2023-01-28T02:01:28;102247.28;;;4.28;84.63
46464;BME280;32161;48.148;-1.554;2023-01-28T02:04:03;102246.13;;;4.30;84.13
46464;BME280;32161;48.148;-1.554;2023-01-28T02:06:34;102246.84;;;4.32;83.89
46464;BME280;32161;48.148;-1.554;2023-01-28T02:09:06;102256.75;;;4.32;83.98
46464;BME280;32161;48.148;-1.554;2023-01-28T02:11:34;102246.75;;;4.24;83.52
46464;BME280;32161;48.148;-1.554;2023-01-28T02:14:04;102249.16;;;4.27;84.07
46464;BME280;32161;48.148;-1.554;2023-01-28T02:16:32;102255.66;;;4.25;83.79
46464;BME280;32161;48.148;-1.554;2023-01-28T02:19:02;102257.22;;;4.27;83.63
46464;BME280;32161;48.148;-1.554;2023-01-28T02:22:09;102267.22;;;4.35;83.26
46464;BME280;32161;48.148;-1.554;2023-01-28T02:25:18;102272.91;;;4.32;83.17
46464;BME280;32161;48.148;-1.554;2023-01-28T02:28:22;102276.16;;;4.35;82.64
46464;BME280;32161;48.148;-1.554;2023-01-28T02:30:57;102272.59;;;4.35;82.27
46464;BME280;32161;48.148;-1.554;2023-01-28T02:33:33;102261.22;;;4.41;82.56
46464;BME280;32161;48.148;-1.554;2023-01-28T02:36:12;102270.88;;;4.34;81.74
46464;BME280;32161;48.148;-1.554;2023-01-28T02:38:47;102268.75;;;4.37;82.18
46464;BME280;32161;48.148;-1.554;2023-01-28T02:41:22;102273.16;;;4.38;82.00
46464;BME280;32161;48.148;-1.554;2023-01-28T02:43:53;102271.97;;;4.41;81.74
46464;BME280;32161;48.148;-1.554;2023-01-28T02:46:33;102277.22;;;4.43;82.20
46464;BME280;32161;48.148;-1.554;2023-01-28T02:49:25;102277.16;;;4.34;81.67
46464;BME280;32161;48.148;-1.554;2023-01-28T02:52:19;102280.22;;;4.39;81.34
46464;BME280;32161;48.148;-1.554;2023-01-28T02:55:17;102271.69;;;4.44;81.00
46464;BME280;32161;48.148;-1.554;2023-01-28T02:57:57;102280.78;;;4.43;80.23
46464;BME280;32161;48.148;-1.554;2023-01-28T03:00:36;102275.09;;;4.46;79.27
46464;BME280;32161;48.148;-1.554;2023-01-28T03:03:15;102279.38;;;4.39;79.60
46464;BME280;32161;48.148;-1.554;2023-01-28T03:05:49;102282.06;;;4.39;80.18
46464;BME280;32161;48.148;-1.554;2023-01-28T03:08:38;102284.75;;;4.39;80.48
46464;BME280;32161;48.148;-1.554;2023-01-28T03:11:25;102291.00;;;4.39;80.83
46464;BME280;32161;48.148;-1.554;2023-01-28T03:14:11;102287.00;;;4.44;80.46
46464;BME280;32161;48.148;-1.554;2023-01-28T03:17:00;102288.38;;;4.48;78.14
46464;BME280;32161;48.148;-1.554;2023-01-28T03:19:46;102290.28;;;4.37;79.43
46464;BME280;32161;48.148;-1.554;2023-01-28T03:22:36;102292.75;;;4.31;79.27
46464;BME280;32161;48.148;-1.554;2023-01-28T03:25:25;102291.75;;;4.32;78.70
46464;BME280;32161;48.148;-1.554;2023-01-28T03:28:15;102295.88;;;4.26;77.94
46464;BME280;32161;48.148;-1.554;2023-01-28T03:31:06;102301.41;;;4.25;79.02
46464;BME280;32161;48.148;-1.554;2023-01-28T03:33:54;102297.72;;;4.26;79.07
46464;BME280;32161;48.148;-1.554;2023-01-28T03:36:41;102298.44;;;4.28;79.20
46464;BME280;32161;48.148;-1.554;2023-01-28T03:39:22;102296.19;;;4.23;78.05
46464;BME280;32161;48.148;-1.554;2023-01-28T03:41:59;102298.56;;;4.26;77.78
46464;BME280;32161;48.148;-1.554;2023-01-28T03:44:28;102303.84;;;4.18;77.65
46464;BME280;32161;48.148;-1.554;2023-01-28T03:47:13;102303.91;;;4.08;78.61
46464;BME280;32161;48.148;-1.554;2023-01-28T03:49:44;102305.91;;;4.06;78.71
46464;BME280;32161;48.148;-1.554;2023-01-28T03:52:16;102308.00;;;4.12;77.71
46464;BME280;32161;48.148;-1.554;2023-01-28T03:54:45;102304.78;;;3.99;78.38
46464;BME280;32161;48.148;-1.554;2023-01-28T03:57:14;102307.38;;;3.91;78.86
46464;BME280;32161;48.148;-1.554;2023-01-28T03:59:42;102301.31;;;3.89;78.77
46464;BME280;32161;48.148;-1.554;2023-01-28T04:02:11;102309.97;;;3.83;78.94
46464;BME280;32161;48.148;-1.554;2023-01-28T04:04:39;102304.03;;;3.79;79.55
46464;BME280;32161;48.148;-1.554;2023-01-28T04:07:11;102303.47;;;3.85;79.28
46464;BME280;32161;48.148;-1.554;2023-01-28T04:09:41;102308.41;;;3.80;79.96
46464;BME280;32161;48.148;-1.554;2023-01-28T04:12:09;102313.66;;;3.82;79.83
46464;BME280;32161;48.148;-1.554;2023-01-28T04:14:37;102313.66;;;3.82;80.15
46464;BME280;32161;48.148;-1.554;2023-01-28T04:17:06;102311.97;;;3.81;80.59
46464;BME280;32161;48.148;-1.554;2023-01-28T04:19:35;102321.00;;;3.80;80.87
46464;BME280;32161;48.148;-1.554;2023-01-28T04:22:05;102321.56;;;3.83;81.14
46464;BME280;32161;48.148;-1.554;2023-01-28T04:24:34;102321.56;;;3.83;80.77
46464;BME280;32161;48.148;-1.554;2023-01-28T04:27:02;102325.09;;;3.84;81.11
46464;BME280;32161;48.148;-1.554;2023-01-28T04:29:30;102325.09;;;3.84;81.18
46464;BME280;32161;48.148;-1.554;2023-01-28T04:31:57;102325.09;;;3.84;81.10
46464;BME280;32161;48.148;-1.554;2023-01-28T04:34:25;102309.22;;;3.90;80.47
46464;BME280;32161;48.148;-1.554;2023-01-28T04:36:53;102307.69;;;3.88;81.27
46464;BME280;32161;48.148;-1.554;2023-01-28T04:39:20;102290.56;;;3.89;79.98
46464;BME280;32161;48.148;-1.554;2023-01-28T04:41:49;102287.72;;;3.90;80.24
46464;BME280;32161;48.148;-1.554;2023-01-28T04:44:17;102296.38;;;3.84;79.94
46464;BME280;32161;48.148;-1.554;2023-01-28T04:46:44;102301.63;;;3.86;79.95
46464;BME280;32161;48.148;-1.554;2023-01-28T04:49:12;102294.22;;;3.88;79.96
46464;BME280;32161;48.148;-1.554;2023-01-28T04:51:40;102306.16;;;3.85;79.76
46464;BME280;32161;48.148;-1.554;2023-01-28T04:54:08;102310.97;;;3.82;79.72
46464;BME280;32161;48.148;-1.554;2023-01-28T04:56:35;102310.56;;;3.77;79.67
46464;BME280;32161;48.148;-1.554;2023-01-28T04:59:04;102309.16;;;3.73;80.28
46464;BME280;32161;48.148;-1.554;2023-01-28T05:01:33;102311.16;;;3.71;79.37
46464;BME280;32161;48.148;-1.554;2023-01-28T05:04:01;102313.84;;;3.71;78.93
46464;BME280;32161;48.148;-1.554;2023-01-28T05:06:30;102318.66;;;3.67;78.08
46464;BME280;32161;48.148;-1.554;2023-01-28T05:08:58;102324.06;;;3.57;78.39
46464;BME280;32161;48.148;-1.554;2023-01-28T05:11:26;102331.44;;;3.55;78.60
46464;BME280;32161;48.148;-1.554;2023-01-28T05:13:54;102337.97;;;3.43;78.26
46464;BME280;32161;48.148;-1.554;2023-01-28T05:16:23;102331.47;;;3.36;79.04
46464;BME280;32161;48.148;-1.554;2023-01-28T05:18:50;102329.06;;;3.33;78.48
46464;BME280;32161;48.148;-1.554;2023-01-28T05:21:18;102344.38;;;3.13;78.81
46464;BME280;32161;48.148;-1.554;2023-01-28T05:23:45;102339.84;;;3.04;79.44
46464;BME280;32161;48.148;-1.554;2023-01-28T05:26:13;102342.09;;;3.08;80.08
46464;BME280;32161;48.148;-1.554;2023-01-28T05:28:41;102343.53;;;3.12;79.35
46464;BME280;32161;48.148;-1.554;2023-01-28T05:31:09;102339.84;;;3.13;80.02
46464;BME280;32161;48.148;-1.554;2023-01-28T05:33:38;102337.31;;;3.12;79.12
46464;BME280;32161;48.148;-1.554;2023-01-28T05:36:06;102340.09;;;3.10;79.85
46464;BME280;32161;48.148;-1.554;2023-01-28T05:38:34;102353.41;;;3.12;79.24
46464;BME280;32161;48.148;-1.554;2023-01-28T05:41:02;102352.84;;;3.08;79.33
46464;BME280;32161;48.148;-1.554;2023-01-28T05:43:29;102343.38;;;3.04;79.86
46464;BME280;32161;48.148;-1.554;2023-01-28T05:45:57;102349.03;;;3.01;80.26
46464;BME280;32161;48.148;-1.554;2023-01-28T05:48:24;102344.94;;;2.97;80.40
46464;BME280;32161;48.148;-1.554;2023-01-28T05:50:53;102354.94;;;2.95;80.16
46464;BME280;32161;48.148;-1.554;2023-01-28T05:53:21;102359.63;;;2.93;79.95
46464;BME280;32161;48.148;-1.554;2023-01-28T05:55:49;102363.28;;;2.92;80.55
46464;BME280;32161;48.148;-1.554;2023-01-28T05:58:19;102355.66;;;2.87;80.17
46464;BME280;32161;48.148;-1.554;2023-01-28T06:00:47;102363.72;;;2.87;80.31
46464;BME280;32161;48.148;-1.554;2023-01-28T06:03:14;102361.44;;;2.83;80.64
46464;BME280;32161;48.148;-1.554;2023-01-28T06:05:42;102360.59;;;2.82;80.14
46464;BME280;32161;48.148;-1.554;2023-01-28T06:08:11;102358.34;;;2.78;80.07
46464;BME280;32161;48.148;-1.554;2023-01-28T06:10:38;102360.47;;;2.74;79.65
46464;BME280;32161;48.148;-1.554;2023-01-28T06:13:06;102369.63;;;2.72;80.30
46464;BME280;32161;48.148;-1.554;2023-01-28T06:15:33;102364.53;;;2.68;80.76
46464;BME280;32161;48.148;-1.554;2023-01-28T06:18:01;102371.03;;;2.66;80.92
46464;BME280;32161;48.148;-1.554;2023-01-28T06:20:29;102375.69;;;2.64;81.00
46464;BME280;32161;48.148;-1.554;2023-01-28T06:22:56;102387.56;;;2.61;80.39
46464;BME280;32161;48.148;-1.554;2023-01-28T06:25:25;102373.00;;;2.64;81.24
46464;BME280;32161;48.148;-1.554;2023-01-28T06:27:53;102371.47;;;2.61;81.40
46464;BME280;32161;48.148;-1.554;2023-01-28T06:30:21;102369.06;;;2.58;81.27
46464;BME280;32161;48.148;-1.554;2023-01-28T06:32:53;102375.25;;;2.59;81.02
46464;BME280;32161;48.148;-1.554;2023-01-28T06:35:21;102373.69;;;2.56;81.47
46464;BME280;32161;48.148;-1.554;2023-01-28T06:37:49;102377.22;;;2.47;81.43
46464;BME280;32161;48.148;-1.554;2023-01-28T06:40:18;102377.06;;;2.49;81.58
46464;BME280;32161;48.148;-1.554;2023-01-28T06:42:47;102373.53;;;2.48;82.33
46464;BME280;32161;48.148;-1.554;2023-01-28T06:45:15;102383.00;;;2.52;81.89
46464;BME280;32161;48.148;-1.554;2023-01-28T06:47:42;102387.69;;;2.50;81.43
46464;BME280;32161;48.148;-1.554;2023-01-28T06:50:10;102391.91;;;2.53;81.60
46464;BME280;32161;48.148;-1.554;2023-01-28T06:52:39;102389.09;;;2.54;82.10
46464;BME280;32161;48.148;-1.554;2023-01-28T06:55:07;102390.06;;;2.53;81.65
46464;BME280;32161;48.148;-1.554;2023-01-28T06:57:37;102391.63;;;2.46;82.60
46464;BME280;32161;48.148;-1.554;2023-01-28T07:00:09;102390.06;;;2.43;82.21
46464;BME280;32161;48.148;-1.554;2023-01-28T07:02:38;102399.47;;;2.38;81.94
46464;BME280;32161;48.148;-1.554;2023-01-28T07:05:06;102396.41;;;2.42;83.39
46464;BME280;32161;48.148;-1.554;2023-01-28T07:07:34;102397.00;;;2.46;83.10
46464;BME280;32161;48.148;-1.554;2023-01-28T07:10:02;102401.13;;;2.19;83.66
46464;BME280;32161;48.148;-1.554;2023-01-28T07:12:29;102394.13;;;2.07;83.87
46464;BME280;32161;48.148;-1.554;2023-01-28T07:14:57;102399.53;;;1.86;85.02
46464;BME280;32161;48.148;-1.554;2023-01-28T07:17:26;102397.03;;;1.94;85.06
46464;BME280;32161;48.148;-1.554;2023-01-28T07:19:54;102398.69;;;1.86;85.29
46464;BME280;32161;48.148;-1.554;2023-01-28T07:22:21;102396.38;;;2.02;86.32
46464;BME280;32161;48.148;-1.554;2023-01-28T07:24:49;102393.53;;;2.04;85.45
46464;BME280;32161;48.148;-1.554;2023-01-28T07:27:17;102378.41;;;2.24;85.29
46464;BME280;32161;48.148;-1.554;2023-01-28T07:29:44;102386.91;;;2.29;84.80
46464;BME280;32161;48.148;-1.554;2023-01-28T07:32:12;102386.91;;;2.29;84.67
46464;BME280;32161;48.148;-1.554;2023-01-28T07:34:41;102387.06;;;2.37;84.56
46464;BME280;32161;48.148;-1.554;2023-01-28T07:37:09;102400.63;;;2.45;84.77
46464;BME280;32161;48.148;-1.554;2023-01-28T07:39:36;102401.59;;;2.34;84.83
46464;BME280;32161;48.148;-1.554;2023-01-28T07:42:04;102395.09;;;2.37;85.14
46464;BME280;32161;48.148;-1.554;2023-01-28T07:44:31;102402.16;;;2.38;84.30
46464;BME280;32161;48.148;-1.554;2023-01-28T07:47:01;102401.88;;;2.31;84.73
46464;BME280;32161;48.148;-1.554;2023-01-28T07:49:28;102396.78;;;2.28;85.97
46464;BME280;32161;48.148;-1.554;2023-01-28T07:51:57;102405.84;;;2.37;86.15
46464;BME280;32161;48.148;-1.554;2023-01-28T07:54:25;102398.78;;;2.36;86.13
46464;BME280;32161;48.148;-1.554;2023-01-28T07:56:53;102404.47;;;2.52;85.02
46464;BME280;32161;48.148;-1.554;2023-01-28T07:59:21;102399.59;;;2.67;84.89
46464;BME280;32161;48.148;-1.554;2023-01-28T08:01:49;102400.00;;;2.72;85.01
46464;BME280;32161;48.148;-1.554;2023-01-28T08:04:16;102393.94;;;2.80;84.32
46464;BME280;32161;48.148;-1.554;2023-01-28T08:06:44;102392.97;;;2.81;83.78
46464;BME280;32161;48.148;-1.554;2023-01-28T08:09:13;102399.03;;;2.83;83.70
46464;BME280;32161;48.148;-1.554;2023-01-28T08:11:41;102408.63;;;2.76;84.15
46464;BME280;32161;48.148;-1.554;2023-01-28T08:14:09;102412.19;;;2.86;84.28
46464;BME280;32161;48.148;-1.554;2023-01-28T08:16:37;102399.19;;;2.91;84.08
46464;BME280;32161;48.148;-1.554;2023-01-28T08:19:05;102406.44;;;3.00;83.77
46464;BME280;32161;48.148;-1.554;2023-01-28T08:21:33;102416.03;;;3.03;83.41
46464;BME280;32161;48.148;-1.554;2023-01-28T08:24:00;102422.06;;;2.76;84.38
46464;BME280;32161;48.148;-1.554;2023-01-28T08:26:29;102426.75;;;2.74;85.21
46464;BME280;32161;48.148;-1.554;2023-01-28T08:28:57;102416.97;;;2.73;85.64
46464;BME280;32161;48.148;-1.554;2023-01-28T08:31:24;102423.94;;;2.85;84.77
46464;BME280;32161;48.148;-1.554;2023-01-28T08:33:52;102421.41;;;2.93;83.86
46464;BME280;32161;48.148;-1.554;2023-01-28T08:36:19;102424.38;;;3.00;84.45
46464;BME280;32161;48.148;-1.554;2023-01-28T08:38:51;102425.66;;;3.05;83.70
46464;BME280;32161;48.148;-1.554;2023-01-28T08:41:20;102438.81;;;3.08;83.32
46464;BME280;32161;48.148;-1.554;2023-01-28T08:43:50;102417.91;;;3.12;83.74
46464;BME280;32161;48.148;-1.554;2023-01-28T08:46:17;102426.91;;;2.82;83.68
46464;BME280;32161;48.148;-1.554;2023-01-28T08:48:45;102424.78;;;2.95;84.79
46464;BME280;32161;48.148;-1.554;2023-01-28T08:51:13;102421.25;;;2.94;84.60
46464;BME280;32161;48.148;-1.554;2023-01-28T08:53:40;102413.19;;;2.85;85.24
46464;BME280;32161;48.148;-1.554;2023-01-28T08:56:08;102420.81;;;2.80;85.36
46464;BME280;32161;48.148;-1.554;2023-01-28T08:58:35;102432.28;;;2.82;84.88
46464;BME280;32161;48.148;-1.554;2023-01-28T09:01:06;102422.38;;;2.92;85.63
46464;BME280;32161;48.148;-1.554;2023-01-28T09:03:33;102434.66;;;2.75;85.81
46464;BME280;32161;48.148;-1.554;2023-01-28T09:06:04;102435.22;;;2.79;86.13
46464;BME280;32161;48.148;-1.554;2023-01-28T09:08:31;102433.00;;;2.93;85.59
46464;BME280;32161;48.148;-1.554;2023-01-28T09:10:59;102433.69;;;2.96;85.68
46464;BME280;32161;48.148;-1.554;2023-01-28T09:13:27;102444.88;;;3.01;86.13
46464;BME280;32161;48.148;-1.554;2023-01-28T09:15:55;102445.88;;;3.09;85.04
46464;BME280;32161;48.148;-1.554;2023-01-28T09:18:24;102456.06;;;3.06;86.11
46464;BME280;32161;48.148;-1.554;2023-01-28T09:20:51;102449.00;;;3.05;85.52
46464;BME280;32161;48.148;-1.554;2023-01-28T09:23:19;102451.09;;;3.01;86.25
46464;BME280;32161;48.148;-1.554;2023-01-28T09:25:47;102455.16;;;2.86;86.54
46464;BME280;32161;48.148;-1.554;2023-01-28T09:28:14;102461.91;;;2.71;87.36
46464;BME280;32161;48.148;-1.554;2023-01-28T09:30:42;102467.28;;;2.80;89.15
46464;BME280;32161;48.148;-1.554;2023-01-28T09:33:09;102472.13;;;2.86;88.80
46464;BME280;32161;48.148;-1.554;2023-01-28T09:35:38;102466.03;;;2.75;89.13
46464;BME280;32161;48.148;-1.554;2023-01-28T09:38:06;102461.66;;;2.74;88.96
46464;BME280;32161;48.148;-1.554;2023-01-28T09:40:36;102456.34;;;3.12;89.10
46464;BME280;32161;48.148;-1.554;2023-01-28T09:43:24;102468.09;;;3.11;89.46
46464;BME280;32161;48.148;-1.554;2023-01-28T09:45:57;102466.56;;;3.28;88.92
46464;BME280;32161;48.148;-1.554;2023-01-28T09:48:31;102471.34;;;3.34;88.15
46464;BME280;32161;48.148;-1.554;2023-01-28T09:51:10;102467.56;;;3.47;88.36
46464;BME280;32161;48.148;-1.554;2023-01-28T09:53:42;102478.31;;;3.56;89.46
46464;BME280;32161;48.148;-1.554;2023-01-28T09:56:24;102481.28;;;3.92;88.32
46464;BME280;32161;48.148;-1.554;2023-01-28T09:58:52;102475.88;;;3.73;88.53
46464;BME280;32161;48.148;-1.554;2023-01-28T10:01:36;102479.31;;;3.84;88.45
46464;BME280;32161;48.148;-1.554;2023-01-28T10:04:17;102492.56;;;3.96;88.55
46464;BME280;32161;48.148;-1.554;2023-01-28T10:07:00;102490.59;;;3.88;89.33
46464;BME280;32161;48.148;-1.554;2023-01-28T10:09:39;102492.00;;;4.11;88.63
46464;BME280;32161;48.148;-1.554;2023-01-28T10:15:31;102500.47;;;4.07;87.66
46464;BME280;32161;48.148;-1.554;2023-01-28T10:18:09;102504.31;;;4.04;89.13
46464;BME280;32161;48.148;-1.554;2023-01-28T10:20:40;102510.06;;;4.29;89.90
46464;BME280;32161;48.148;-1.554;2023-01-28T10:23:17;102505.75;;;4.55;89.38
46464;BME280;32161;48.148;-1.554;2023-01-28T10:25:46;102505.16;;;4.61;89.10
46464;BME280;32161;48.148;-1.554;2023-01-28T10:28:19;102510.75;;;4.78;89.22
46464;BME280;32161;48.148;-1.554;2023-01-28T10:30:48;102514.19;;;4.70;89.49
46464;BME280;32161;48.148;-1.554;2023-01-28T10:33:21;102514.31;;;4.69;90.04
46464;BME280;32161;48.148;-1.554;2023-01-28T10:35:50;102513.66;;;4.94;89.14
46464;BME280;32161;48.148;-1.554;2023-01-28T10:38:23;102510.38;;;5.00;87.99
46464;BME280;32161;48.148;-1.554;2023-01-28T10:40:52;102500.81;;;5.06;88.52
46464;BME280;32161;48.148;-1.554;2023-01-28T10:43:25;102506.38;;;5.04;88.62
46464;BME280;32161;48.148;-1.554;2023-01-28T10:46:00;102508.31;;;5.12;88.90
46464;BME280;32161;48.148;-1.554;2023-01-28T10:48:32;102508.41;;;5.38;87.71
46464;BME280;32161;48.148;-1.554;2023-01-28T10:51:04;102508.13;;;5.59;86.20
46464;BME280;32161;48.148;-1.554;2023-01-28T10:53:39;102515.75;;;5.63;86.41
46464;BME280;32161;48.148;-1.554;2023-01-28T10:56:09;102503.94;;;5.64;86.16
46464;BME280;32161;48.148;-1.554;2023-01-28T10:58:49;102502.13;;;5.65;86.15
46464;BME280;32161;48.148;-1.554;2023-01-28T11:01:23;102486.63;;;5.67;85.99
46464;BME280;32161;48.148;-1.554;2023-01-28T11:03:56;102487.69;;;5.56;87.39
46464;BME280;32161;48.148;-1.554;2023-01-28T11:06:26;102492.88;;;5.32;87.96
46464;BME280;32161;48.148;-1.554;2023-01-28T11:08:56;102487.91;;;5.45;88.13
46464;BME280;32161;48.148;-1.554;2023-01-28T11:11:25;102494.66;;;5.59;87.84
46464;BME280;32161;48.148;-1.554;2023-01-28T11:13:53;102493.25;;;5.55;88.22
46464;BME280;32161;48.148;-1.554;2023-01-28T11:16:25;102486.00;;;5.55;87.45
46464;BME280;32161;48.148;-1.554;2023-01-28T11:18:55;102487.78;;;5.47;88.59
46464;BME280;32161;48.148;-1.554;2023-01-28T11:21:28;102488.78;;;5.63;88.50
46464;BME280;32161;48.148;-1.554;2023-01-28T11:24:01;102476.97;;;5.82;87.40
46464;BME280;32161;48.148;-1.554;2023-01-28T11:26:32;102472.38;;;5.93;87.06
46464;BME280;32161;48.148;-1.554;2023-01-28T11:29:01;102477.34;;;6.05;86.68
46464;BME280;32161;48.148;-1.554;2023-01-28T11:31:38;102480.41;;;6.10;85.89
46464;BME280;32161;48.148;-1.554;2023-01-28T11:34:10;102461.50;;;6.10;86.86
46464;BME280;32161;48.148;-1.554;2023-01-28T11:36:50;102468.81;;;6.18;86.41
46464;BME280;32161;48.148;-1.554;2023-01-28T11:39:22;102460.03;;;6.42;84.07
46464;BME280;32161;48.148;-1.554;2023-01-28T11:41:53;102456.53;;;6.50;82.73
46464;BME280;32161;48.148;-1.554;2023-01-28T11:44:24;102458.31;;;6.41;84.19
46464;BME280;32161;48.148;-1.554;2023-01-28T11:50:23;102455.63;;;6.41;86.03
46464;BME280;32161;48.148;-1.554;2023-01-28T11:53:12;102452.31;;;6.55;84.58
46464;BME280;32161;48.148;-1.554;2023-01-28T11:56:02;102455.56;;;6.59;84.71
46464;BME280;32161;48.148;-1.554;2023-01-28T11:58:42;102447.34;;;6.77;82.61
46464;BME280;32161;48.148;-1.554;2023-01-28T12:01:20;102441.06;;;6.76;81.95
46464;BME280;32161;48.148;-1.554;2023-01-28T12:04:20;102439.19;;;6.69;82.77
46464;BME280;32161;48.148;-1.554;2023-01-28T12:07:06;102423.66;;;6.63;84.63
46464;BME280;32161;48.148;-1.554;2023-01-28T12:09:48;102435.63;;;6.60;84.65
46464;BME280;32161;48.148;-1.554;2023-01-28T12:12:45;102436.28;;;6.54;83.93
46464;BME280;32161;48.148;-1.554;2023-01-28T12:15:57;102430.44;;;6.75;82.41
46464;BME280;32161;48.148;-1.554;2023-01-28T12:19:05;102432.84;;;6.86;82.50
46464;BME280;32161;48.148;-1.554;2023-01-28T12:21:51;102427.63;;;6.84;82.12
46464;BME280;32161;48.148;-1.554;2023-01-28T12:24:40;102428.16;;;6.96;81.97
46464;BME280;32161;48.148;-1.554;2023-01-28T12:27:24;102431.72;;;7.05;82.27
46464;BME280;32161;48.148;-1.554;2023-01-28T12:30:05;102430.56;;;7.07;81.76
46464;BME280;32161;48.148;-1.554;2023-01-28T12:32:48;102430.88;;;6.96;81.97
46464;BME280;32161;48.148;-1.554;2023-01-28T12:35:45;102419.34;;;6.94;82.01
46464;BME280;32161;48.148;-1.554;2023-01-28T12:38:26;102415.69;;;7.03;82.23
46464;BME280;32161;48.148;-1.554;2023-01-28T12:41:06;102416.50;;;7.04;80.91
46464;BME280;32161;48.148;-1.554;2023-01-28T12:43:46;102415.63;;;6.95;81.66
46464;BME280;32161;48.148;-1.554;2023-01-28T12:46:32;102417.34;;;6.96;81.93
46464;BME280;32161;48.148;-1.554;2023-01-28T12:49:06;102422.56;;;6.98;80.32
46464;BME280;32161;48.148;-1.554;2023-01-28T12:51:48;102405.50;;;6.89;81.44
46464;BME280;32161;48.148;-1.554;2023-01-28T12:54:24;102405.16;;;6.92;80.97
46464;BME280;32161;48.148;-1.554;2023-01-28T12:56:54;102416.81;;;6.93;81.22
46464;BME280;32161;48.148;-1.554;2023-01-28T12:59:29;102407.00;;;6.92;80.70
46464;BME280;32161;48.148;-1.554;2023-01-28T13:02:16;102406.66;;;6.87;80.71
46464;BME280;32161;48.148;-1.554;2023-01-28T13:04:53;102404.28;;;6.83;80.98
46464;BME280;32161;48.148;-1.554;2023-01-28T13:07:30;102409.38;;;6.87;81.18
46464;BME280;32161;48.148;-1.554;2023-01-28T13:10:04;102412.38;;;6.83;81.62
46464;BME280;32161;48.148;-1.554;2023-01-28T13:12:33;102415.63;;;6.87;81.83
46464;BME280;32161;48.148;-1.554;2023-01-28T13:15:02;102405.13;;;6.84;82.59
46464;BME280;32161;48.148;-1.554;2023-01-28T13:17:32;102412.59;;;6.90;81.87
46464;BME280;32161;48.148;-1.554;2023-01-28T13:20:01;102409.69;;;6.83;80.61
46464;BME280;32161;48.148;-1.554;2023-01-28T13:22:39;102405.09;;;6.68;82.36
46464;BME280;32161;48.148;-1.554;2023-01-28T13:25:20;102408.81;;;6.75;81.90